sensor_id;sensor_type;location;lat;lon;timestamp;P1;durP1;ratioP1;P2;durP2;ratioP2
49614;SDS011;35517;45.272;9.984;2023-02-12T00:00:42;52.70;;;24.48;;
49614;SDS011;35517;45.272;9.984;2023-02-12T00:03:09;50.95;;;25.33;;
49614;SDS011;35517;45.272;9.984;2023-02-12T00:05:36;55.28;;;27.35;;
49614;SDS011;35517;45.272;9.984;2023-02-12T00:08:08;49.20;;;27.23;;
49614;SDS011;35517;45.272;9.984;2023-02-12T00:10:40;51.08;;;26.90;;
49614;SDS011;35517;45.272;9.984;2023-02-12T00:13:08;52.72;;;28.48;;
49614;SDS011;35517;45.272;9.984;2023-02-12T00:15:38;53.03;;;27.52;;
49614;SDS011;35517;45.272;9.984;2023-02-12T00:18:06;52.22;;;26.08;;
49614;SDS011;35517;45.272;9.984;2023-02-12T00:20:33;48.92;;;27.30;;
49614;SDS011;35517;45.272;9.984;2023-02-12T00:22:59;51.55;;;26.25;;
49614;SDS011;35517;45.272;9.984;2023-02-12T00:25:26;47.83;;;25.75;;
49614;SDS011;35517;45.272;9.984;2023-02-12T00:27:56;53.60;;;26.65;;
49614;SDS011;35517;45.272;9.984;2023-02-12T00:30:24;53.40;;;25.20;;
49614;SDS011;35517;45.272;9.984;2023-02-12T00:32:55;47.70;;;23.98;;
49614;SDS011;35517;45.272;9.984;2023-02-12T00:35:23;50.17;;;26.40;;
49614;SDS011;35517;45.272;9.984;2023-02-12T00:37:50;53.00;;;27.08;;
49614;SDS011;35517;45.272;9.984;2023-02-12T00:40:17;50.10;;;26.05;;
49614;SDS011;35517;45.272;9.984;2023-02-12T00:42:44;50.72;;;25.63;;
49614;SDS011;35517;45.272;9.984;2023-02-12T00:45:11;48.42;;;25.83;;
49614;SDS011;35517;45.272;9.984;2023-02-12T00:47:37;47.90;;;26.42;;
49614;SDS011;35517;45.272;9.984;2023-02-12T00:50:04;49.08;;;28.20;;
49614;SDS011;35517;45.272;9.984;2023-02-12T00:52:31;50.72;;;25.27;;
49614;SDS011;35517;45.272;9.984;2023-02-12T00:54:58;51.15;;;28.10;;
49614;SDS011;35517;45.272;9.984;2023-02-12T00:57:24;56.25;;;26.60;;
49614;SDS011;35517;45.272;9.984;2023-02-12T00:59:51;47.45;;;26.38;;
49614;SDS011;35517;45.272;9.984;2023-02-12T01:02:17;53.63;;;24.92;;
49614;SDS011;35517;45.272;9.984;2023-02-12T01:04:45;46.95;;;25.95;;
49614;SDS011;35517;45.272;9.984;2023-02-12T01:07:12;48.92;;;25.08;;
49614;SDS011;35517;45.272;9.984;2023-02-12T01:09:38;53.35;;;28.33;;
49614;SDS011;35517;45.272;9.984;2023-02-12T01:12:05;51.42;;;26.13;;
49614;SDS011;35517;45.272;9.984;2023-02-12T01:14:32;46.63;;;25.88;;
49614;SDS011;35517;45.272;9.984;2023-02-12T01:16:58;46.97;;;25.05;;
49614;SDS011;35517;45.272;9.984;2023-02-12T01:19:25;50.22;;;27.73;;
49614;SDS011;35517;45.272;9.984;2023-02-12T01:21:52;54.30;;;27.80;;
49614;SDS011;35517;45.272;9.984;2023-02-12T01:24:19;53.15;;;27.75;;
49614;SDS011;35517;45.272;9.984;2023-02-12T01:26:46;48.55;;;25.70;;
49614;SDS011;35517;45.272;9.984;2023-02-12T01:29:12;50.05;;;26.45;;
49614;SDS011;35517;45.272;9.984;2023-02-12T01:31:39;49.45;;;25.55;;
49614;SDS011;35517;45.272;9.984;2023-02-12T01:34:07;47.60;;;25.83;;
49614;SDS011;35517;45.272;9.984;2023-02-12T01:36:33;57.22;;;28.70;;
49614;SDS011;35517;45.272;9.984;2023-02-12T01:39:01;49.47;;;25.02;;
49614;SDS011;35517;45.272;9.984;2023-02-12T01:41:29;55.55;;;27.20;;
49614;SDS011;35517;45.272;9.984;2023-02-12T01:46:38;48.25;;;25.27;;
49614;SDS011;35517;45.272;9.984;2023-02-12T01:49:06;48.42;;;26.30;;
49614;SDS011;35517;45.272;9.984;2023-02-12T01:51:34;51.58;;;26.40;;
49614;SDS011;35517;45.272;9.984;2023-02-12T01:54:01;53.03;;;28.73;;
49614;SDS011;35517;45.272;9.984;2023-02-12T01:56:30;49.95;;;26.58;;
49614;SDS011;35517;45.272;9.984;2023-02-12T01:58:57;53.22;;;29.10;;
49614;SDS011;35517;45.272;9.984;2023-02-12T02:01:25;48.08;;;26.77;;
49614;SDS011;35517;45.272;9.984;2023-02-12T02:04:00;49.72;;;26.70;;
49614;SDS011;35517;45.272;9.984;2023-02-12T02:06:31;47.42;;;25.38;;
49614;SDS011;35517;45.272;9.984;2023-02-12T02:08:59;50.80;;;27.60;;
49614;SDS011;35517;45.272;9.984;2023-02-12T02:11:26;52.20;;;26.17;;
49614;SDS011;35517;45.272;9.984;2023-02-12T02:14:11;53.53;;;25.83;;
49614;SDS011;35517;45.272;9.984;2023-02-12T02:24:42;53.20;;;26.42;;
49614;SDS011;35517;45.272;9.984;2023-02-12T02:32:22;47.22;;;24.45;;
49614;SDS011;35517;45.272;9.984;2023-02-12T02:35:04;66.60;;;30.77;;
49614;SDS011;35517;45.272;9.984;2023-02-12T02:37:56;52.85;;;26.40;;
49614;SDS011;35517;45.272;9.984;2023-02-12T02:42:47;51.92;;;25.75;;
49614;SDS011;35517;45.272;9.984;2023-02-12T02:45:18;47.67;;;25.67;;
49614;SDS011;35517;45.272;9.984;2023-02-12T02:48:01;46.33;;;24.92;;
49614;SDS011;35517;45.272;9.984;2023-02-12T02:50:30;48.55;;;25.70;;
49614;SDS011;35517;45.272;9.984;2023-02-12T02:53:01;47.75;;;24.55;;
49614;SDS011;35517;45.272;9.984;2023-02-12T02:55:31;52.47;;;25.33;;
49614;SDS011;35517;45.272;9.984;2023-02-12T02:58:01;51.83;;;25.48;;
49614;SDS011;35517;45.272;9.984;2023-02-12T03:00:34;46.30;;;25.90;;
49614;SDS011;35517;45.272;9.984;2023-02-12T03:03:07;51.20;;;25.52;;
49614;SDS011;35517;45.272;9.984;2023-02-12T03:05:39;52.70;;;26.30;;
49614;SDS011;35517;45.272;9.984;2023-02-12T03:08:11;53.60;;;26.10;;
49614;SDS011;35517;45.272;9.984;2023-02-12T03:10:42;50.35;;;25.25;;
49614;SDS011;35517;45.272;9.984;2023-02-12T03:16:02;46.40;;;25.30;;
49614;SDS011;35517;45.272;9.984;2023-02-12T03:18:32;47.08;;;25.50;;
49614;SDS011;35517;45.272;9.984;2023-02-12T03:21:03;43.88;;;24.58;;
49614;SDS011;35517;45.272;9.984;2023-02-12T03:26:25;40.85;;;22.40;;
49614;SDS011;35517;45.272;9.984;2023-02-12T03:28:52;50.65;;;25.38;;
49614;SDS011;35517;45.272;9.984;2023-02-12T03:34:03;45.65;;;24.10;;
49614;SDS011;35517;45.272;9.984;2023-02-12T03:39:10;46.15;;;24.67;;
49614;SDS011;35517;45.272;9.984;2023-02-12T03:47:01;49.97;;;24.48;;
49614;SDS011;35517;45.272;9.984;2023-02-12T03:49:33;51.08;;;25.73;;
49614;SDS011;35517;45.272;9.984;2023-02-12T03:52:00;47.38;;;24.58;;
49614;SDS011;35517;45.272;9.984;2023-02-12T03:54:28;50.80;;;27.58;;
49614;SDS011;35517;45.272;9.984;2023-02-12T03:59:21;49.83;;;25.73;;
49614;SDS011;35517;45.272;9.984;2023-02-12T04:01:49;48.83;;;25.67;;
49614;SDS011;35517;45.272;9.984;2023-02-12T04:04:17;46.25;;;26.30;;
49614;SDS011;35517;45.272;9.984;2023-02-12T04:06:44;50.60;;;25.60;;
49614;SDS011;35517;45.272;9.984;2023-02-12T04:09:12;49.60;;;25.00;;
49614;SDS011;35517;45.272;9.984;2023-02-12T04:11:48;52.35;;;26.20;;
49614;SDS011;35517;45.272;9.984;2023-02-12T04:14:28;48.38;;;25.88;;
49614;SDS011;35517;45.272;9.984;2023-02-12T04:19:49;58.58;;;29.65;;
49614;SDS011;35517;45.272;9.984;2023-02-12T04:25:07;54.55;;;26.38;;
49614;SDS011;35517;45.272;9.984;2023-02-12T04:30:21;44.45;;;25.65;;
49614;SDS011;35517;45.272;9.984;2023-02-12T04:32:50;44.85;;;24.73;;
49614;SDS011;35517;45.272;9.984;2023-02-12T04:38:09;43.08;;;24.10;;
49614;SDS011;35517;45.272;9.984;2023-02-12T04:40:39;44.35;;;23.50;;
49614;SDS011;35517;45.272;9.984;2023-02-12T04:43:07;46.78;;;22.45;;
49614;SDS011;35517;45.272;9.984;2023-02-12T04:45:34;48.00;;;24.52;;
49614;SDS011;35517;45.272;9.984;2023-02-12T04:48:01;44.08;;;25.35;;
49614;SDS011;35517;45.272;9.984;2023-02-12T04:50:39;44.30;;;23.02;;
49614;SDS011;35517;45.272;9.984;2023-02-12T04:53:06;44.47;;;23.00;;
49614;SDS011;35517;45.272;9.984;2023-02-12T04:55:33;40.80;;;22.75;;
49614;SDS011;35517;45.272;9.984;2023-02-12T04:57:59;51.33;;;25.77;;
49614;SDS011;35517;45.272;9.984;2023-02-12T05:00:26;38.08;;;20.48;;
49614;SDS011;35517;45.272;9.984;2023-02-12T05:02:52;43.13;;;23.83;;
49614;SDS011;35517;45.272;9.984;2023-02-12T05:05:19;44.72;;;23.52;;
49614;SDS011;35517;45.272;9.984;2023-02-12T05:07:46;42.53;;;22.33;;
49614;SDS011;35517;45.272;9.984;2023-02-12T05:10:13;48.88;;;24.42;;
49614;SDS011;35517;45.272;9.984;2023-02-12T05:12:46;39.15;;;22.33;;
49614;SDS011;35517;45.272;9.984;2023-02-12T05:15:12;43.00;;;23.60;;
49614;SDS011;35517;45.272;9.984;2023-02-12T05:17:39;40.50;;;23.65;;
49614;SDS011;35517;45.272;9.984;2023-02-12T05:20:06;43.80;;;22.15;;
49614;SDS011;35517;45.272;9.984;2023-02-12T05:22:33;44.45;;;23.60;;
49614;SDS011;35517;45.272;9.984;2023-02-12T05:24:59;40.75;;;23.33;;
49614;SDS011;35517;45.272;9.984;2023-02-12T05:27:26;44.72;;;22.38;;
49614;SDS011;35517;45.272;9.984;2023-02-12T05:29:52;47.13;;;25.65;;
49614;SDS011;35517;45.272;9.984;2023-02-12T05:32:19;43.38;;;23.20;;
49614;SDS011;35517;45.272;9.984;2023-02-12T05:34:46;46.80;;;23.50;;
49614;SDS011;35517;45.272;9.984;2023-02-12T05:37:12;44.35;;;24.27;;
49614;SDS011;35517;45.272;9.984;2023-02-12T05:39:39;42.20;;;24.27;;
49614;SDS011;35517;45.272;9.984;2023-02-12T05:42:06;46.33;;;24.92;;
49614;SDS011;35517;45.272;9.984;2023-02-12T05:44:32;45.58;;;24.75;;
49614;SDS011;35517;45.272;9.984;2023-02-12T05:46:59;41.08;;;23.25;;
49614;SDS011;35517;45.272;9.984;2023-02-12T05:49:26;46.63;;;25.10;;
49614;SDS011;35517;45.272;9.984;2023-02-12T05:51:52;45.97;;;24.52;;
49614;SDS011;35517;45.272;9.984;2023-02-12T05:54:19;42.35;;;21.85;;
49614;SDS011;35517;45.272;9.984;2023-02-12T05:56:46;43.90;;;22.63;;
49614;SDS011;35517;45.272;9.984;2023-02-12T05:59:14;44.75;;;22.55;;
49614;SDS011;35517;45.272;9.984;2023-02-12T06:01:42;44.90;;;23.38;;
49614;SDS011;35517;45.272;9.984;2023-02-12T06:04:12;41.50;;;22.30;;
49614;SDS011;35517;45.272;9.984;2023-02-12T06:06:39;47.15;;;23.40;;
49614;SDS011;35517;45.272;9.984;2023-02-12T06:09:07;42.80;;;24.42;;
49614;SDS011;35517;45.272;9.984;2023-02-12T06:11:33;49.55;;;25.48;;
49614;SDS011;35517;45.272;9.984;2023-02-12T06:14:03;42.45;;;22.10;;
49614;SDS011;35517;45.272;9.984;2023-02-12T06:16:30;53.15;;;24.27;;
49614;SDS011;35517;45.272;9.984;2023-02-12T06:18:57;44.10;;;24.23;;
49614;SDS011;35517;45.272;9.984;2023-02-12T06:21:26;46.33;;;23.45;;
49614;SDS011;35517;45.272;9.984;2023-02-12T06:23:53;43.70;;;24.63;;
49614;SDS011;35517;45.272;9.984;2023-02-12T06:26:20;44.00;;;24.88;;
49614;SDS011;35517;45.272;9.984;2023-02-12T06:28:47;46.13;;;23.08;;
49614;SDS011;35517;45.272;9.984;2023-02-12T06:31:18;51.33;;;24.33;;
49614;SDS011;35517;45.272;9.984;2023-02-12T06:33:45;44.17;;;22.77;;
49614;SDS011;35517;45.272;9.984;2023-02-12T06:36:12;40.63;;;22.98;;
49614;SDS011;35517;45.272;9.984;2023-02-12T06:38:38;45.35;;;23.73;;
49614;SDS011;35517;45.272;9.984;2023-02-12T06:41:05;48.53;;;24.38;;
49614;SDS011;35517;45.272;9.984;2023-02-12T06:43:32;46.10;;;24.15;;
49614;SDS011;35517;45.272;9.984;2023-02-12T06:46:02;43.30;;;24.00;;
49614;SDS011;35517;45.272;9.984;2023-02-12T06:48:30;44.20;;;23.88;;
49614;SDS011;35517;45.272;9.984;2023-02-12T06:51:08;46.78;;;25.77;;
49614;SDS011;35517;45.272;9.984;2023-02-12T06:53:37;43.67;;;23.85;;
49614;SDS011;35517;45.272;9.984;2023-02-12T06:56:04;48.70;;;24.98;;
49614;SDS011;35517;45.272;9.984;2023-02-12T06:58:31;46.13;;;24.52;;
49614;SDS011;35517;45.272;9.984;2023-02-12T07:01:15;50.03;;;24.17;;
49614;SDS011;35517;45.272;9.984;2023-02-12T07:03:49;44.78;;;25.05;;
49614;SDS011;35517;45.272;9.984;2023-02-12T07:06:17;47.60;;;24.05;;
49614;SDS011;35517;45.272;9.984;2023-02-12T07:08:44;42.55;;;22.92;;
49614;SDS011;35517;45.272;9.984;2023-02-12T07:11:11;47.10;;;25.27;;
49614;SDS011;35517;45.272;9.984;2023-02-12T07:13:39;46.20;;;24.17;;
49614;SDS011;35517;45.272;9.984;2023-02-12T07:16:06;45.40;;;25.02;;
49614;SDS011;35517;45.272;9.984;2023-02-12T07:18:34;45.10;;;24.48;;
49614;SDS011;35517;45.272;9.984;2023-02-12T07:21:01;43.35;;;22.75;;
49614;SDS011;35517;45.272;9.984;2023-02-12T07:23:28;48.53;;;24.80;;
49614;SDS011;35517;45.272;9.984;2023-02-12T07:25:58;49.85;;;25.92;;
49614;SDS011;35517;45.272;9.984;2023-02-12T07:28:25;40.47;;;21.42;;
49614;SDS011;35517;45.272;9.984;2023-02-12T07:30:52;46.13;;;24.55;;
49614;SDS011;35517;45.272;9.984;2023-02-12T07:33:19;44.35;;;23.55;;
49614;SDS011;35517;45.272;9.984;2023-02-12T07:35:46;56.55;;;26.10;;
49614;SDS011;35517;45.272;9.984;2023-02-12T07:38:12;42.83;;;23.70;;
49614;SDS011;35517;45.272;9.984;2023-02-12T07:40:39;43.97;;;23.02;;
49614;SDS011;35517;45.272;9.984;2023-02-12T07:43:06;43.97;;;25.90;;
49614;SDS011;35517;45.272;9.984;2023-02-12T07:45:34;46.95;;;24.92;;
49614;SDS011;35517;45.272;9.984;2023-02-12T07:48:01;42.45;;;24.30;;
49614;SDS011;35517;45.272;9.984;2023-02-12T07:50:28;46.45;;;24.42;;
49614;SDS011;35517;45.272;9.984;2023-02-12T07:52:54;39.50;;;23.80;;
49614;SDS011;35517;45.272;9.984;2023-02-12T07:55:21;44.35;;;24.17;;
49614;SDS011;35517;45.272;9.984;2023-02-12T07:57:47;44.25;;;25.23;;
49614;SDS011;35517;45.272;9.984;2023-02-12T08:00:14;43.15;;;24.52;;
49614;SDS011;35517;45.272;9.984;2023-02-12T08:02:49;41.97;;;23.30;;
49614;SDS011;35517;45.272;9.984;2023-02-12T08:05:16;48.38;;;25.30;;
49614;SDS011;35517;45.272;9.984;2023-02-12T08:07:42;47.95;;;26.20;;
49614;SDS011;35517;45.272;9.984;2023-02-12T08:10:09;48.88;;;26.45;;
49614;SDS011;35517;45.272;9.984;2023-02-12T08:12:36;47.08;;;25.38;;
49614;SDS011;35517;45.272;9.984;2023-02-12T08:15:02;46.88;;;25.08;;
49614;SDS011;35517;45.272;9.984;2023-02-12T08:17:29;49.20;;;26.52;;
49614;SDS011;35517;45.272;9.984;2023-02-12T08:19:56;46.03;;;26.08;;
49614;SDS011;35517;45.272;9.984;2023-02-12T08:22:22;45.38;;;24.92;;
49614;SDS011;35517;45.272;9.984;2023-02-12T08:24:49;48.83;;;26.10;;
49614;SDS011;35517;45.272;9.984;2023-02-12T08:27:15;57.63;;;27.88;;
49614;SDS011;35517;45.272;9.984;2023-02-12T08:29:45;46.67;;;27.35;;
49614;SDS011;35517;45.272;9.984;2023-02-12T08:32:12;53.90;;;30.15;;
49614;SDS011;35517;45.272;9.984;2023-02-12T08:34:41;46.95;;;26.40;;
49614;SDS011;35517;45.272;9.984;2023-02-12T08:37:08;44.20;;;27.20;;
49614;SDS011;35517;45.272;9.984;2023-02-12T08:39:35;47.60;;;26.95;;
49614;SDS011;35517;45.272;9.984;2023-02-12T08:42:01;43.92;;;26.20;;
49614;SDS011;35517;45.272;9.984;2023-02-12T08:44:28;41.13;;;24.58;;
49614;SDS011;35517;45.272;9.984;2023-02-12T08:46:54;58.92;;;31.52;;
49614;SDS011;35517;45.272;9.984;2023-02-12T08:49:22;53.38;;;28.80;;
49614;SDS011;35517;45.272;9.984;2023-02-12T08:51:51;49.75;;;27.08;;
49614;SDS011;35517;45.272;9.984;2023-02-12T08:54:19;48.75;;;27.15;;
49614;SDS011;35517;45.272;9.984;2023-02-12T08:56:46;44.30;;;26.30;;
49614;SDS011;35517;45.272;9.984;2023-02-12T08:59:14;46.03;;;26.83;;
49614;SDS011;35517;45.272;9.984;2023-02-12T09:01:41;51.35;;;29.27;;
49614;SDS011;35517;45.272;9.984;2023-02-12T09:04:12;46.05;;;28.15;;
49614;SDS011;35517;45.272;9.984;2023-02-12T09:06:39;41.50;;;24.42;;
49614;SDS011;35517;45.272;9.984;2023-02-12T09:09:07;45.70;;;26.52;;
49614;SDS011;35517;45.272;9.984;2023-02-12T09:11:35;48.28;;;27.83;;
49614;SDS011;35517;45.272;9.984;2023-02-12T09:14:10;50.08;;;27.40;;
49614;SDS011;35517;45.272;9.984;2023-02-12T09:16:37;56.10;;;30.85;;
49614;SDS011;35517;45.272;9.984;2023-02-12T09:19:07;46.50;;;27.92;;
49614;SDS011;35517;45.272;9.984;2023-02-12T09:21:34;47.47;;;28.45;;
49614;SDS011;35517;45.272;9.984;2023-02-12T09:24:01;47.78;;;26.88;;
49614;SDS011;35517;45.272;9.984;2023-02-12T09:26:28;55.42;;;30.45;;
49614;SDS011;35517;45.272;9.984;2023-02-12T09:28:55;46.55;;;28.23;;
49614;SDS011;35517;45.272;9.984;2023-02-12T09:31:26;43.33;;;26.90;;
49614;SDS011;35517;45.272;9.984;2023-02-12T09:34:03;53.78;;;28.35;;
49614;SDS011;35517;45.272;9.984;2023-02-12T09:36:30;46.83;;;27.45;;
49614;SDS011;35517;45.272;9.984;2023-02-12T09:38:57;61.58;;;33.38;;
49614;SDS011;35517;45.272;9.984;2023-02-12T09:51:43;53.63;;;29.15;;
49614;SDS011;35517;45.272;9.984;2023-02-12T09:56:37;46.22;;;27.73;;
49614;SDS011;35517;45.272;9.984;2023-02-12T09:59:05;47.45;;;26.80;;
49614;SDS011;35517;45.272;9.984;2023-02-12T10:01:33;54.97;;;28.38;;
49614;SDS011;35517;45.272;9.984;2023-02-12T10:04:00;44.65;;;26.73;;
49614;SDS011;35517;45.272;9.984;2023-02-12T10:06:27;44.50;;;27.38;;
49614;SDS011;35517;45.272;9.984;2023-02-12T10:14:01;45.78;;;26.67;;
49614;SDS011;35517;45.272;9.984;2023-02-12T10:22:51;49.75;;;28.38;;
49614;SDS011;35517;45.272;9.984;2023-02-12T10:27:19;47.17;;;28.23;;
49614;SDS011;35517;45.272;9.984;2023-02-12T10:29:47;47.80;;;28.88;;
49614;SDS011;35517;45.272;9.984;2023-02-12T10:32:18;43.60;;;26.90;;
49614;SDS011;35517;45.272;9.984;2023-02-12T10:37:20;54.75;;;28.55;;
49614;SDS011;35517;45.272;9.984;2023-02-12T10:39:54;49.28;;;27.70;;
49614;SDS011;35517;45.272;9.984;2023-02-12T10:42:38;53.08;;;27.48;;
49614;SDS011;35517;45.272;9.984;2023-02-12T10:45:08;64.82;;;33.70;;
49614;SDS011;35517;45.272;9.984;2023-02-12T10:47:38;51.33;;;29.45;;
49614;SDS011;35517;45.272;9.984;2023-02-12T10:50:13;58.33;;;31.45;;
49614;SDS011;35517;45.272;9.984;2023-02-12T10:52:44;40.95;;;26.25;;
49614;SDS011;35517;45.272;9.984;2023-02-12T10:55:23;48.28;;;27.27;;
49614;SDS011;35517;45.272;9.984;2023-02-12T10:57:50;43.80;;;27.45;;
49614;SDS011;35517;45.272;9.984;2023-02-12T11:00:30;45.25;;;25.92;;
49614;SDS011;35517;45.272;9.984;2023-02-12T11:02:59;47.83;;;27.70;;
49614;SDS011;35517;45.272;9.984;2023-02-12T11:05:28;47.95;;;29.75;;
49614;SDS011;35517;45.272;9.984;2023-02-12T11:07:55;46.22;;;26.98;;
49614;SDS011;35517;45.272;9.984;2023-02-12T11:10:28;47.05;;;27.60;;
49614;SDS011;35517;45.272;9.984;2023-02-12T11:12:57;53.05;;;31.63;;
49614;SDS011;35517;45.272;9.984;2023-02-12T11:15:25;50.05;;;28.05;;
49614;SDS011;35517;45.272;9.984;2023-02-12T11:17:56;54.30;;;31.80;;
49614;SDS011;35517;45.272;9.984;2023-02-12T11:23:04;52.83;;;28.80;;
49614;SDS011;35517;45.272;9.984;2023-02-12T11:25:32;47.28;;;27.45;;
49614;SDS011;35517;45.272;9.984;2023-02-12T11:30:26;45.35;;;28.23;;
49614;SDS011;35517;45.272;9.984;2023-02-12T11:32:54;49.33;;;28.98;;
49614;SDS011;35517;45.272;9.984;2023-02-12T11:35:33;44.38;;;25.90;;
49614;SDS011;35517;45.272;9.984;2023-02-12T11:38:00;40.53;;;26.60;;
49614;SDS011;35517;45.272;9.984;2023-02-12T11:40:31;42.38;;;24.52;;
49614;SDS011;35517;45.272;9.984;2023-02-12T11:43:02;46.20;;;26.20;;
49614;SDS011;35517;45.272;9.984;2023-02-12T11:45:52;35.05;;;21.25;;
49614;SDS011;35517;45.272;9.984;2023-02-12T11:48:23;31.02;;;19.20;;
49614;SDS011;35517;45.272;9.984;2023-02-12T11:50:51;31.45;;;18.33;;
49614;SDS011;35517;45.272;9.984;2023-02-12T11:53:20;33.83;;;21.25;;
49614;SDS011;35517;45.272;9.984;2023-02-12T11:55:54;37.35;;;23.13;;
49614;SDS011;35517;45.272;9.984;2023-02-12T11:58:23;33.95;;;20.98;;
49614;SDS011;35517;45.272;9.984;2023-02-12T12:06:06;31.38;;;18.60;;
49614;SDS011;35517;45.272;9.984;2023-02-12T12:08:44;35.42;;;21.65;;
49614;SDS011;35517;45.272;9.984;2023-02-12T12:11:21;49.70;;;27.80;;
49614;SDS011;35517;45.272;9.984;2023-02-12T12:13:56;32.60;;;21.05;;
49614;SDS011;35517;45.272;9.984;2023-02-12T12:17:09;36.38;;;22.98;;
49614;SDS011;35517;45.272;9.984;2023-02-12T12:20:10;35.45;;;20.48;;
49614;SDS011;35517;45.272;9.984;2023-02-12T12:30:35;35.05;;;21.90;;
49614;SDS011;35517;45.272;9.984;2023-02-12T12:33:04;36.08;;;21.02;;
49614;SDS011;35517;45.272;9.984;2023-02-12T12:35:35;34.30;;;21.65;;
49614;SDS011;35517;45.272;9.984;2023-02-12T12:38:13;35.53;;;21.98;;
49614;SDS011;35517;45.272;9.984;2023-02-12T12:41:08;33.78;;;21.10;;
49614;SDS011;35517;45.272;9.984;2023-02-12T12:43:37;31.83;;;19.67;;
49614;SDS011;35517;45.272;9.984;2023-02-12T12:46:13;30.92;;;19.23;;
49614;SDS011;35517;45.272;9.984;2023-02-12T12:54:12;34.38;;;21.75;;
49614;SDS011;35517;45.272;9.984;2023-02-12T13:17:17;34.05;;;20.40;;
49614;SDS011;35517;45.272;9.984;2023-02-12T13:19:51;40.80;;;20.95;;
49614;SDS011;35517;45.272;9.984;2023-02-12T13:22:27;39.92;;;23.90;;
49614;SDS011;35517;45.272;9.984;2023-02-12T13:27:35;34.58;;;21.90;;
49614;SDS011;35517;45.272;9.984;2023-02-12T13:32:41;39.35;;;21.50;;
49614;SDS011;35517;45.272;9.984;2023-02-12T13:35:15;33.45;;;20.48;;
49614;SDS011;35517;45.272;9.984;2023-02-12T13:37:44;29.52;;;19.48;;
49614;SDS011;35517;45.272;9.984;2023-02-12T13:40:14;33.88;;;22.27;;
49614;SDS011;35517;45.272;9.984;2023-02-12T13:45:29;36.28;;;20.95;;
49614;SDS011;35517;45.272;9.984;2023-02-12T14:01:12;36.13;;;22.27;;
49614;SDS011;35517;45.272;9.984;2023-02-12T14:03:40;36.38;;;19.60;;
49614;SDS011;35517;45.272;9.984;2023-02-12T14:08:37;32.70;;;19.60;;
49614;SDS011;35517;45.272;9.984;2023-02-12T14:11:11;35.72;;;21.77;;
49614;SDS011;35517;45.272;9.984;2023-02-12T14:13:52;24.92;;;17.55;;
49614;SDS011;35517;45.272;9.984;2023-02-12T14:21:41;35.17;;;19.95;;
49614;SDS011;35517;45.272;9.984;2023-02-12T14:26:53;27.42;;;17.55;;
49614;SDS011;35517;45.272;9.984;2023-02-12T14:29:20;30.67;;;17.90;;
49614;SDS011;35517;45.272;9.984;2023-02-12T14:31:49;30.73;;;18.83;;
49614;SDS011;35517;45.272;9.984;2023-02-12T14:36:43;24.88;;;16.77;;
49614;SDS011;35517;45.272;9.984;2023-02-12T14:41:50;26.45;;;16.20;;
49614;SDS011;35517;45.272;9.984;2023-02-12T14:54:31;31.30;;;19.17;;
49614;SDS011;35517;45.272;9.984;2023-02-12T14:57:00;28.98;;;18.63;;
49614;SDS011;35517;45.272;9.984;2023-02-12T14:59:30;31.90;;;19.25;;
49614;SDS011;35517;45.272;9.984;2023-02-12T15:01:58;32.45;;;19.27;;
49614;SDS011;35517;45.272;9.984;2023-02-12T15:04:27;30.90;;;18.50;;
49614;SDS011;35517;45.272;9.984;2023-02-12T15:07:04;31.88;;;21.98;;
49614;SDS011;35517;45.272;9.984;2023-02-12T15:09:37;29.77;;;20.02;;
49614;SDS011;35517;45.272;9.984;2023-02-12T15:14:36;32.88;;;21.70;;
49614;SDS011;35517;45.272;9.984;2023-02-12T15:19:39;39.00;;;23.73;;
49614;SDS011;35517;45.272;9.984;2023-02-12T15:22:22;36.80;;;23.27;;
49614;SDS011;35517;45.272;9.984;2023-02-12T15:24:50;40.60;;;24.90;;
49614;SDS011;35517;45.272;9.984;2023-02-12T15:27:17;39.42;;;24.17;;
49614;SDS011;35517;45.272;9.984;2023-02-12T15:29:46;36.28;;;23.23;;
49614;SDS011;35517;45.272;9.984;2023-02-12T15:32:31;40.65;;;23.70;;
49614;SDS011;35517;45.272;9.984;2023-02-12T15:35:00;32.33;;;19.85;;
49614;SDS011;35517;45.272;9.984;2023-02-12T15:37:27;28.17;;;19.40;;
49614;SDS011;35517;45.272;9.984;2023-02-12T15:39:56;29.50;;;18.40;;
49614;SDS011;35517;45.272;9.984;2023-02-12T15:42:32;35.97;;;19.83;;
49614;SDS011;35517;45.272;9.984;2023-02-12T15:47:41;30.58;;;18.88;;
49614;SDS011;35517;45.272;9.984;2023-02-12T15:50:12;50.15;;;21.77;;
49614;SDS011;35517;45.272;9.984;2023-02-12T15:52:40;33.45;;;20.45;;
49614;SDS011;35517;45.272;9.984;2023-02-12T15:55:18;35.92;;;21.67;;
49614;SDS011;35517;45.272;9.984;2023-02-12T15:57:51;32.08;;;19.83;;
49614;SDS011;35517;45.272;9.984;2023-02-12T16:00:34;36.20;;;21.42;;
49614;SDS011;35517;45.272;9.984;2023-02-12T16:03:15;32.88;;;19.98;;
49614;SDS011;35517;45.272;9.984;2023-02-12T16:05:44;35.22;;;22.42;;
49614;SDS011;35517;45.272;9.984;2023-02-12T16:08:13;31.70;;;19.50;;
49614;SDS011;35517;45.272;9.984;2023-02-12T16:10:42;34.85;;;21.17;;
49614;SDS011;35517;45.272;9.984;2023-02-12T16:13:11;37.75;;;23.70;;
49614;SDS011;35517;45.272;9.984;2023-02-12T16:15:41;38.50;;;21.23;;
49614;SDS011;35517;45.272;9.984;2023-02-12T16:18:24;31.08;;;21.17;;
49614;SDS011;35517;45.272;9.984;2023-02-12T16:21:05;39.42;;;22.25;;
49614;SDS011;35517;45.272;9.984;2023-02-12T16:23:36;28.85;;;19.15;;
49614;SDS011;35517;45.272;9.984;2023-02-12T16:26:06;36.70;;;22.20;;
49614;SDS011;35517;45.272;9.984;2023-02-12T16:28:33;33.78;;;21.40;;
49614;SDS011;35517;45.272;9.984;2023-02-12T16:31:10;32.10;;;21.38;;
49614;SDS011;35517;45.272;9.984;2023-02-12T16:36:06;39.22;;;20.77;;
49614;SDS011;35517;45.272;9.984;2023-02-12T16:38:54;37.88;;;21.23;;
49614;SDS011;35517;45.272;9.984;2023-02-12T16:41:26;35.55;;;22.48;;
49614;SDS011;35517;45.272;9.984;2023-02-12T16:46:28;49.35;;;27.90;;
49614;SDS011;35517;45.272;9.984;2023-02-12T16:48:56;49.58;;;28.40;;
49614;SDS011;35517;45.272;9.984;2023-02-12T16:51:31;46.00;;;28.35;;
49614;SDS011;35517;45.272;9.984;2023-02-12T16:53:59;47.78;;;26.08;;
49614;SDS011;35517;45.272;9.984;2023-02-12T16:56:28;43.08;;;26.45;;
49614;SDS011;35517;45.272;9.984;2023-02-12T16:58:59;40.50;;;24.85;;
49614;SDS011;35517;45.272;9.984;2023-02-12T17:01:30;46.17;;;23.70;;
49614;SDS011;35517;45.272;9.984;2023-02-12T17:04:06;36.95;;;21.90;;
49614;SDS011;35517;45.272;9.984;2023-02-12T17:10:21;39.97;;;22.90;;
49614;SDS011;35517;45.272;9.984;2023-02-12T17:12:49;39.53;;;24.95;;
49614;SDS011;35517;45.272;9.984;2023-02-12T17:18:11;40.88;;;24.35;;
49614;SDS011;35517;45.272;9.984;2023-02-12T17:20:38;41.58;;;25.83;;
49614;SDS011;35517;45.272;9.984;2023-02-12T17:23:05;43.65;;;26.35;;
49614;SDS011;35517;45.272;9.984;2023-02-12T17:25:33;53.72;;;27.15;;
49614;SDS011;35517;45.272;9.984;2023-02-12T17:28:01;46.90;;;27.13;;
49614;SDS011;35517;45.272;9.984;2023-02-12T17:30:27;47.42;;;28.25;;
49614;SDS011;35517;45.272;9.984;2023-02-12T17:32:57;50.83;;;28.17;;
49614;SDS011;35517;45.272;9.984;2023-02-12T17:35:25;49.97;;;28.65;;
49614;SDS011;35517;45.272;9.984;2023-02-12T17:37:55;50.83;;;31.70;;
49614;SDS011;35517;45.272;9.984;2023-02-12T17:40:22;47.42;;;28.88;;
49614;SDS011;35517;45.272;9.984;2023-02-12T17:42:49;45.22;;;28.02;;